Time;durP1;ratioP1;P1;durP2;ratioP2;P2;SDS_P1;SDS_P2;PMS_P1;PMS_P2;Temp;Humidity;BMP_temperature;BMP_pressure;BME280_temperature;BME280_humidity;BME280_pressure;Samples;Min_cycle;Max_cycle;Signal;HPM_P1;HPM_P2
2023/04/09 00:01:31;;;;;;;86.30;60.88;;;8.60;99.90;;;;;;6127360;23;20005;-80
2023/04/09 00:03:57;;;;;;;91.00;61.58;;;8.70;99.90;;;;;;6127136;23;20503;-81
2023/04/09 00:06:22;;;;;;;83.68;59.83;;;8.60;99.90;;;;;;6127240;23;20018;-82
2023/04/09 00:08:48;;;;;;;85.93;61.67;;;8.60;99.90;;;;;;6127149;23;20045;-81
2023/04/09 00:11:14;;;;;;;84.15;59.63;;;8.60;99.90;;;;;;6127182;23;20013;-81
2023/04/09 00:13:39;;;;;;;86.13;59.38;;;8.60;99.90;;;;;;6153051;23;20014;-81
2023/04/09 00:16:06;;;;;;;79.38;57.38;;;8.50;99.90;;;;;;6127121;23;20018;-81
2023/04/09 00:18:31;;;;;;;77.32;57.28;;;8.60;99.90;;;;;;6126897;23;20075;-81
2023/04/09 00:20:57;;;;;;;79.65;55.97;;;8.60;99.90;;;;;;6127020;23;20475;-81
2023/04/09 00:23:22;;;;;;;71.13;53.88;;;8.60;99.90;;;;;;6127522;23;20014;-82
2023/04/09 00:25:48;;;;;;;75.10;54.78;;;8.60;99.90;;;;;;6154127;23;20420;-82
2023/04/09 00:28:14;;;;;;;75.72;53.95;;;8.50;99.90;;;;;;6126904;23;20013;-80
2023/04/09 00:30:40;;;;;;;67.13;48.45;;;8.70;99.90;;;;;;6127993;23;20027;-81
2023/04/09 00:33:05;;;;;;;69.05;48.88;;;8.50;99.90;;;;;;6127755;23;20049;-83
2023/04/09 00:35:31;;;;;;;65.72;46.85;;;8.50;99.90;;;;;;6127525;23;20013;-82
2023/04/09 00:37:56;;;;;;;59.47;45.35;;;8.50;99.90;;;;;;6128510;23;20085;-80
2023/04/09 00:40:22;;;;;;;60.35;43.70;;;8.50;99.90;;;;;;6154143;23;20064;-82
2023/04/09 00:42:48;;;;;;;50.90;38.70;;;8.50;99.90;;;;;;6126277;23;20024;-83
2023/04/09 00:45:13;;;;;;;51.05;36.53;;;8.50;99.90;;;;;;6102411;23;20089;-81
2023/04/09 00:47:39;;;;;;;46.42;36.38;;;8.50;99.90;;;;;;6126696;23;20017;-81
2023/04/09 00:50:05;;;;;;;42.42;33.05;;;8.50;99.90;;;;;;6153320;23;20052;-81
2023/04/09 00:52:32;;;;;;;40.67;30.65;;;8.40;99.90;;;;;;6102145;23;20025;-82
2023/04/09 00:55:03;;;;;;;42.35;33.22;;;8.50;99.90;;;;;;6153453;23;20022;-82
2023/04/09 00:57:29;;;;;;;41.60;32.47;;;8.50;99.90;;;;;;6101869;23;20014;-82
2023/04/09 00:59:55;;;;;;;43.75;33.60;;;8.40;99.90;;;;;;6153141;23;20060;-83
2023/04/09 01:02:21;;;;;;;43.13;33.15;;;8.40;99.90;;;;;;6153094;23;20020;-83
2023/04/09 01:04:47;;;;;;;43.08;32.67;;;8.40;99.90;;;;;;6127035;23;20388;-82
2023/04/09 01:07:33;;;;;;;44.47;32.90;;;8.40;99.90;;;;;;6127054;23;20018;-82
2023/04/09 01:10:22;;;;;;;48.17;34.38;;;8.40;99.90;;;;;;6126826;23;20017;-82
2023/04/09 01:13:07;;;;;;;46.40;33.55;;;8.40;99.90;;;;;;6126415;23;20026;-82
2023/04/09 01:15:42;;;;;;;44.40;32.10;;;8.40;99.90;;;;;;6153328;23;20093;-83
2023/04/09 01:18:19;;;;;;;46.78;35.65;;;8.40;99.90;;;;;;6153404;23;20017;-82
2023/04/09 01:21:10;;;;;;;49.40;34.05;;;8.40;99.90;;;;;;6152974;23;20455;-83
2023/04/09 01:24:01;;;;;;;45.55;34.35;;;8.40;99.90;;;;;;6153707;23;20277;-83
2023/04/09 01:27:02;;;;;;;46.53;33.88;;;8.40;99.90;;;;;;6127986;23;20029;-81
2023/04/09 01:29:32;;;;;;;48.22;33.65;;;8.40;99.90;;;;;;6127829;23;20060;-81
2023/04/09 01:31:59;;;;;;;44.63;33.65;;;8.40;99.90;;;;;;6126605;23;20025;-82
2023/04/09 01:34:27;;;;;;;47.67;34.45;;;8.40;99.90;;;;;;6126708;23;20036;-82
2023/04/09 01:36:56;;;;;;;45.25;34.53;;;8.40;99.90;;;;;;6127102;23;20332;-82
2023/04/09 01:39:23;;;;;;;49.65;33.97;;;8.40;99.90;;;;;;6153283;23;20013;-82
2023/04/09 01:41:52;;;;;;;43.67;34.10;;;8.30;99.90;;;;;;6126692;23;20302;-83
2023/04/09 01:44:18;;;;;;;45.72;34.08;;;8.30;99.90;;;;;;6127179;23;20097;-82
2023/04/09 01:46:47;;;;;;;47.92;35.03;;;8.30;99.90;;;;;;6127253;23;20373;-82
2023/04/09 01:49:14;;;;;;;45.30;34.55;;;8.30;99.90;;;;;;6126872;23;20009;-82
2023/04/09 01:51:40;;;;;;;43.72;35.38;;;8.30;99.90;;;;;;6127084;23;20136;-82
2023/04/09 01:54:06;;;;;;;48.55;35.03;;;8.30;99.90;;;;;;6097531;23;20069;-83
2023/04/09 01:56:46;;;;;;;45.72;35.63;;;8.20;99.90;;;;;;6123657;23;20113;-82
2023/04/09 01:59:12;;;;;;;46.20;35.33;;;8.20;99.90;;;;;;6124099;23;20018;-83
2023/04/09 02:01:45;;;;;;;48.30;34.78;;;8.20;99.90;;;;;;6122231;23;20022;-82
2023/04/09 02:04:29;;;;;;;45.33;34.37;;;8.20;99.90;;;;;;6122081;23;20123;-83
2023/04/09 02:07:06;;;;;;;49.15;35.28;;;8.20;99.90;;;;;;6122577;23;20069;-83
2023/04/09 02:09:36;;;;;;;47.78;36.38;;;8.40;99.90;;;;;;6124458;23;20049;-83
2023/04/09 02:12:09;;;;;;;44.50;34.55;;;8.20;99.90;;;;;;6123764;23;20014;-83
2023/04/09 02:14:36;;;;;;;53.00;36.25;;;8.20;99.90;;;;;;6124188;23;20006;-83
2023/04/09 02:17:02;;;;;;;46.38;36.13;;;8.20;99.90;;;;;;6124999;23;20022;-82
2023/04/09 02:19:57;;;;;;;44.97;34.20;;;8.10;99.90;;;;;;6126930;23;20006;-82
2023/04/09 02:22:23;;;;;;;49.13;34.75;;;8.10;99.90;;;;;;6098944;23;20041;-82
2023/04/09 02:24:48;;;;;;;51.88;36.38;;;8.10;99.90;;;;;;6122798;23;20141;-83
2023/04/09 02:27:15;;;;;;;51.25;35.90;;;8.10;99.90;;;;;;6123303;23;20014;-82
2023/04/09 02:29:41;;;;;;;48.10;35.13;;;8.20;99.90;;;;;;6123140;23;20017;-82
2023/04/09 02:32:06;;;;;;;50.47;36.05;;;8.10;99.90;;;;;;6124908;23;20017;-83
2023/04/09 02:34:32;;;;;;;51.00;37.05;;;8.00;99.90;;;;;;6123067;23;20089;-83
2023/04/09 02:36:57;;;;;;;48.90;36.05;;;8.20;99.90;;;;;;6122989;23;20092;-82
2023/04/09 02:39:23;;;;;;;46.63;37.35;;;8.10;99.90;;;;;;6122533;23;20009;-82
2023/04/09 02:41:49;;;;;;;53.38;39.53;;;8.10;99.90;;;;;;6123167;23;20018;-82
2023/04/09 02:44:14;;;;;;;51.85;39.30;;;8.00;99.90;;;;;;6124858;23;20046;-82
2023/04/09 02:46:40;;;;;;;56.60;40.08;;;8.00;99.90;;;;;;6124769;23;20010;-81
2023/04/09 02:49:06;;;;;;;50.20;39.05;;;7.90;99.90;;;;;;6124716;23;20432;-82
2023/04/09 02:51:34;;;;;;;54.33;37.90;;;8.00;99.90;;;;;;6124549;23;20014;-81
2023/04/09 02:54:00;;;;;;;55.03;38.95;;;7.90;99.90;;;;;;6142408;23;20025;-82
2023/04/09 02:56:26;;;;;;;55.42;39.15;;;7.90;99.90;;;;;;6127820;23;20352;-82
2023/04/09 02:58:52;;;;;;;50.15;37.97;;;7.90;99.90;;;;;;6128192;23;20341;-83
2023/04/09 03:01:19;;;;;;;52.80;40.55;;;7.90;99.90;;;;;;6154329;23;20010;-82
2023/04/09 03:03:44;;;;;;;55.15;38.85;;;8.00;99.90;;;;;;6128155;23;20013;-82
2023/04/09 03:06:10;;;;;;;53.03;39.10;;;7.90;99.90;;;;;;6155884;23;20016;-84
2023/04/09 03:08:36;;;;;;;51.35;38.25;;;7.90;99.90;;;;;;6128436;23;20020;-82
2023/04/09 03:11:01;;;;;;;57.35;40.25;;;7.90;99.90;;;;;;6154343;23;20050;-81
2023/04/09 03:13:27;;;;;;;53.53;40.90;;;7.90;99.90;;;;;;6127788;23;20020;-82
2023/04/09 03:15:53;;;;;;;53.40;39.40;;;7.90;99.90;;;;;;6128111;23;20275;-82
2023/04/09 03:18:19;;;;;;;55.25;41.22;;;7.90;99.90;;;;;;6154430;23;20013;-82
2023/04/09 03:20:45;;;;;;;57.70;40.85;;;7.90;99.90;;;;;;6127906;23;20527;-82
2023/04/09 03:23:11;;;;;;;51.90;37.97;;;7.90;99.90;;;;;;6153683;23;20068;-82
2023/04/09 03:25:37;;;;;;;51.53;39.15;;;7.90;99.90;;;;;;6127730;23;20440;-83
2023/04/09 03:28:02;;;;;;;57.22;41.53;;;8.10;99.90;;;;;;6154604;23;20433;-82
2023/04/09 03:30:29;;;;;;;58.60;42.70;;;7.80;99.90;;;;;;6154273;23;20033;-83
2023/04/09 03:32:54;;;;;;;54.28;40.72;;;7.80;99.90;;;;;;6154329;23;20061;-82
2023/04/09 03:35:20;;;;;;;54.88;40.42;;;7.80;99.90;;;;;;6154230;23;20333;-82
2023/04/09 03:37:46;;;;;;;55.60;41.05;;;7.90;99.90;;;;;;6153904;23;20006;-81
2023/04/09 03:40:12;;;;;;;57.50;41.40;;;7.80;99.90;;;;;;6153891;23;20020;-82
2023/04/09 03:42:38;;;;;;;59.50;41.38;;;7.80;99.90;;;;;;6154009;23;20131;-82
2023/04/09 03:45:04;;;;;;;55.72;40.28;;;7.80;99.90;;;;;;6153867;23;20041;-81
2023/04/09 03:47:30;;;;;;;58.17;40.97;;;7.90;99.90;;;;;;6154045;23;20384;-81
2023/04/09 03:49:55;;;;;;;56.20;40.97;;;7.90;99.90;;;;;;6153921;23;20013;-82
2023/04/09 03:52:21;;;;;;;63.03;41.72;;;7.90;99.90;;;;;;6153448;23;20453;-82
2023/04/09 03:54:47;;;;;;;53.25;40.63;;;7.90;99.90;;;;;;6153512;23;20021;-81
2023/04/09 03:57:12;;;;;;;62.92;42.42;;;7.90;99.90;;;;;;6155280;23;20014;-82
2023/04/09 03:59:38;;;;;;;56.70;41.83;;;7.80;99.90;;;;;;6154594;23;20013;-81
2023/04/09 04:02:03;;;;;;;57.05;40.90;;;7.80;99.90;;;;;;6153774;23;20017;-82
2023/04/09 04:04:29;;;;;;;57.53;40.90;;;7.80;99.90;;;;;;6127232;23;20023;-81
2023/04/09 04:06:55;;;;;;;56.03;39.35;;;7.80;99.90;;;;;;6152460;23;20013;-81
2023/04/09 04:09:20;;;;;;;58.50;40.53;;;7.80;99.90;;;;;;6127185;23;20017;-82
2023/04/09 04:11:46;;;;;;;54.88;40.90;;;7.80;99.90;;;;;;6153413;23;20053;-81
2023/04/09 04:14:12;;;;;;;58.67;40.25;;;7.80;99.90;;;;;;6127085;23;20017;-81
2023/04/09 04:16:40;;;;;;;54.97;40.45;;;7.80;99.90;;;;;;6153450;23;20020;-82
2023/04/09 04:19:05;;;;;;;58.65;42.60;;;7.70;99.90;;;;;;6126969;23;20017;-81
2023/04/09 04:21:31;;;;;;;60.45;43.80;;;7.70;99.90;;;;;;6152677;23;20096;-81
2023/04/09 04:23:57;;;;;;;59.15;41.30;;;7.60;99.90;;;;;;6153396;23;20021;-82
2023/04/09 04:26:22;;;;;;;60.22;42.53;;;7.60;99.90;;;;;;6127116;23;20091;-82
2023/04/09 04:28:48;;;;;;;56.53;40.55;;;7.60;99.90;;;;;;6102795;23;20484;-81
2023/04/09 04:31:14;;;;;;;60.33;42.80;;;7.60;99.90;;;;;;6153471;23;20044;-81
2023/04/09 04:33:41;;;;;;;54.53;39.20;;;7.60;99.90;;;;;;6126936;23;20053;-82
2023/04/09 04:36:08;;;;;;;59.70;40.70;;;7.60;99.90;;;;;;6152864;23;20009;-82
2023/04/09 04:38:34;;;;;;;64.10;43.97;;;7.60;99.90;;;;;;6153624;23;20081;-81
2023/04/09 04:41:00;;;;;;;59.42;42.22;;;7.60;99.90;;;;;;6153640;23;20388;-82
2023/04/09 04:43:26;;;;;;;58.30;42.38;;;7.60;99.90;;;;;;6154225;23;20014;-82
2023/04/09 04:45:52;;;;;;;62.40;44.03;;;7.60;99.90;;;;;;6154747;23;20088;-81
2023/04/09 04:48:17;;;;;;;65.45;44.47;;;7.60;99.90;;;;;;6154897;23;20040;-82
2023/04/09 04:50:43;;;;;;;61.15;42.65;;;7.70;99.90;;;;;;6152772;23;20014;-81
2023/04/09 04:53:09;;;;;;;64.47;44.42;;;7.60;99.90;;;;;;6153090;23;20017;-82
2023/04/09 04:55:35;;;;;;;59.17;43.65;;;7.70;99.90;;;;;;6126788;23;20049;-81
2023/04/09 04:58:01;;;;;;;66.80;45.72;;;7.70;99.90;;;;;;6102648;23;20056;-81
2023/04/09 05:00:27;;;;;;;62.28;43.28;;;7.70;99.90;;;;;;6127293;23;20014;-81
2023/04/09 05:02:52;;;;;;;63.42;43.65;;;7.70;99.90;;;;;;6153440;23;20044;-82
2023/04/09 05:05:18;;;;;;;61.58;41.42;;;7.70;99.90;;;;;;6126614;23;20013;-82
2023/04/09 05:07:44;;;;;;;54.97;40.08;;;7.70;99.90;;;;;;6126903;23;20447;-81
2023/04/09 05:10:10;;;;;;;60.53;42.05;;;7.70;99.90;;;;;;6126722;23;20005;-82
2023/04/09 05:12:35;;;;;;;56.88;40.72;;;7.90;99.90;;;;;;6153399;23;20009;-82
2023/04/09 05:15:01;;;;;;;58.95;42.70;;;7.80;99.90;;;;;;6153072;23;20009;-81
2023/04/09 05:17:27;;;;;;;55.97;42.53;;;7.70;99.90;;;;;;6153131;23;20017;-82
2023/04/09 05:19:53;;;;;;;59.25;41.55;;;7.70;99.90;;;;;;6152511;23;20392;-81
2023/04/09 05:22:19;;;;;;;56.30;41.40;;;7.80;99.90;;;;;;6153494;23;20041;-81
2023/04/09 05:24:45;;;;;;;58.50;41.10;;;7.80;99.90;;;;;;6102160;23;20409;-81
2023/04/09 05:27:10;;;;;;;61.00;42.55;;;7.80;99.90;;;;;;6126932;23;20013;-82
2023/04/09 05:29:36;;;;;;;57.95;43.33;;;7.80;99.90;;;;;;6127239;23;20009;-82
2023/04/09 05:32:02;;;;;;;59.35;42.75;;;7.80;99.90;;;;;;6153570;23;20508;-81
2023/04/09 05:34:27;;;;;;;56.33;39.95;;;7.80;99.90;;;;;;6126424;23;20072;-82
2023/04/09 05:36:53;;;;;;;60.70;43.75;;;7.80;99.90;;;;;;6154155;23;20059;-82
2023/04/09 05:39:19;;;;;;;56.85;42.80;;;7.80;99.90;;;;;;6158725;23;20041;-82
2023/04/09 05:41:45;;;;;;;62.28;45.17;;;7.80;99.90;;;;;;6155436;23;20380;-82
2023/04/09 05:44:11;;;;;;;60.70;43.70;;;7.80;99.90;;;;;;6153159;23;20045;-82
2023/04/09 05:46:37;;;;;;;56.20;42.03;;;7.80;99.90;;;;;;6127113;23;20017;-81
2023/04/09 05:49:02;;;;;;;58.65;41.28;;;7.90;99.90;;;;;;6103716;23;20033;-82
2023/04/09 05:51:28;;;;;;;49.70;37.88;;;7.90;99.90;;;;;;6154989;23;20155;-83
2023/04/09 05:53:54;;;;;;;44.20;35.05;;;7.90;99.90;;;;;;6154513;23;20088;-82
2023/04/09 05:56:21;;;;;;;53.42;36.80;;;7.90;99.90;;;;;;6103993;23;20017;-81
2023/04/09 05:58:47;;;;;;;50.15;38.85;;;7.90;99.90;;;;;;6155164;23;20109;-81
2023/04/09 06:01:13;;;;;;;45.97;36.78;;;7.90;99.90;;;;;;6155091;23;20097;-82
2023/04/09 06:03:39;;;;;;;45.65;34.10;;;7.90;99.90;;;;;;6128008;23;20010;-82
2023/04/09 06:06:05;;;;;;;43.53;33.97;;;7.90;99.90;;;;;;6128815;23;20014;-81
2023/04/09 06:08:31;;;;;;;41.22;33.15;;;7.90;99.90;;;;;;6128511;23;20040;-82
2023/04/09 06:10:57;;;;;;;41.00;32.13;;;8.00;99.90;;;;;;6155214;23;20017;-82
2023/04/09 06:13:23;;;;;;;40.70;32.40;;;8.20;99.90;;;;;;6155435;23;20006;-82
2023/04/09 06:15:49;;;;;;;42.58;31.83;;;8.00;99.90;;;;;;6128757;23;20341;-82
2023/04/09 06:18:15;;;;;;;38.35;30.73;;;8.00;99.90;;;;;;6128034;23;20014;-82
2023/04/09 06:20:40;;;;;;;38.45;31.73;;;8.00;99.90;;;;;;6128776;23;20014;-82
2023/04/09 06:23:06;;;;;;;44.00;33.53;;;8.00;99.90;;;;;;6128614;23;20464;-81
2023/04/09 06:25:32;;;;;;;41.45;31.30;;;8.00;99.90;;;;;;6128736;23;20444;-82
2023/04/09 06:27:58;;;;;;;40.45;31.23;;;8.10;99.90;;;;;;6130133;23;20117;-81
2023/04/09 06:30:23;;;;;;;42.10;34.17;;;8.20;99.90;;;;;;6161816;23;20017;-82
2023/04/09 06:32:49;;;;;;;43.78;34.45;;;8.10;99.90;;;;;;6153950;23;20009;-82
2023/04/09 06:35:15;;;;;;;43.42;35.13;;;8.10;99.90;;;;;;6154392;23;20029;-83
2023/04/09 06:37:41;;;;;;;50.22;37.33;;;8.10;99.90;;;;;;6154546;23;20017;-82
2023/04/09 06:40:07;;;;;;;46.53;37.85;;;8.10;99.90;;;;;;6154416;23;20456;-81
2023/04/09 06:42:32;;;;;;;51.20;38.88;;;8.20;99.90;;;;;;6154934;23;20036;-80
2023/04/09 06:44:58;;;;;;;58.00;41.67;;;8.20;99.90;;;;;;6154192;23;20013;-80
2023/04/09 06:47:24;;;;;;;56.80;43.30;;;8.30;99.90;;;;;;6103587;23;20012;-81
2023/04/09 06:49:49;;;;;;;55.90;40.85;;;8.30;99.90;;;;;;6154795;23;20025;-81
2023/04/09 06:52:15;;;;;;;49.38;38.92;;;8.30;99.90;;;;;;6154876;23;20010;-82
2023/04/09 06:54:41;;;;;;;49.67;38.08;;;8.30;99.90;;;;;;6128325;23;20017;-81
2023/04/09 06:57:07;;;;;;;51.17;40.33;;;8.30;99.90;;;;;;6126623;23;20025;-81
2023/04/09 06:59:33;;;;;;;45.33;37.17;;;8.50;99.90;;;;;;6126805;23;20020;-80
2023/04/09 07:01:59;;;;;;;46.95;37.42;;;8.60;99.90;;;;;;6153248;23;20013;-81
2023/04/09 07:04:25;;;;;;;50.28;37.63;;;8.60;99.90;;;;;;6102576;23;20084;-81
2023/04/09 07:06:53;;;;;;;48.35;37.53;;;8.80;99.90;;;;;;6154142;23;20017;-80
2023/04/09 07:09:19;;;;;;;49.92;38.25;;;8.80;99.90;;;;;;6154059;23;20014;-80
2023/04/09 07:11:45;;;;;;;49.83;37.30;;;9.10;99.90;;;;;;6153374;23;20045;-80
2023/04/09 07:14:11;;;;;;;45.08;36.72;;;9.20;99.90;;;;;;6126426;23;20010;-80
2023/04/09 07:16:36;;;;;;;49.75;37.35;;;9.30;99.90;;;;;;6126753;23;20483;-81
2023/04/09 07:19:02;;;;;;;52.67;37.28;;;9.40;99.90;;;;;;6153003;23;20013;-80
2023/04/09 07:21:27;;;;;;;47.28;37.35;;;9.40;99.90;;;;;;6152751;23;20052;-80
2023/04/09 07:23:53;;;;;;;46.38;37.03;;;9.50;99.90;;;;;;6152794;23;20328;-80
2023/04/09 07:26:19;;;;;;;48.33;36.70;;;9.60;99.90;;;;;;6152821;23;20016;-80
2023/04/09 07:28:45;;;;;;;45.40;35.92;;;9.60;99.90;;;;;;6151800;23;20088;-80
2023/04/09 07:31:11;;;;;;;50.00;37.95;;;9.70;99.90;;;;;;6152191;23;20091;-81
2023/04/09 07:33:37;;;;;;;46.05;36.47;;;9.60;99.90;;;;;;6126522;23;20052;-80
2023/04/09 07:36:03;;;;;;;49.42;37.20;;;9.70;99.90;;;;;;6152923;23;20017;-81
2023/04/09 07:38:29;;;;;;;49.50;38.65;;;9.60;99.90;;;;;;6152283;23;20017;-80
2023/04/09 07:40:54;;;;;;;51.88;37.33;;;9.70;99.90;;;;;;6152658;23;20068;-79
2023/04/09 07:43:20;;;;;;;48.58;35.42;;;9.70;99.90;;;;;;6125647;23;20424;-79
2023/04/09 07:45:50;;;;;;;48.58;36.53;;;9.70;99.90;;;;;;6126362;23;20009;-79
2023/04/09 07:48:16;;;;;;;46.53;35.95;;;9.80;99.90;;;;;;6126218;23;20084;-79
2023/04/09 07:50:43;;;;;;;48.45;36.15;;;10.00;99.90;;;;;;6126136;23;20045;-79
2023/04/09 07:53:10;;;;;;;45.10;35.28;;;10.20;99.90;;;;;;6126306;23;20084;-79
2023/04/09 07:55:36;;;;;;;46.40;34.75;;;10.30;99.90;;;;;;6126764;23;20088;-79
2023/04/09 07:58:03;;;;;;;47.28;34.88;;;10.50;99.90;;;;;;6152116;23;20107;-78
2023/04/09 08:00:32;;;;;;;44.03;36.10;;;10.40;99.90;;;;;;6152922;23;20089;-81
2023/04/09 08:02:58;;;;;;;45.22;35.80;;;10.50;99.90;;;;;;6152838;23;20021;-80
2023/04/09 08:05:23;;;;;;;48.58;35.03;;;10.50;99.90;;;;;;6153811;23;20072;-82
2023/04/09 08:07:52;;;;;;;45.78;36.00;;;10.40;99.90;;;;;;6152360;23;20105;-81
2023/04/09 08:10:18;;;;;;;46.13;34.33;;;10.50;99.90;;;;;;6125778;23;20025;-80
2023/04/09 08:12:43;;;;;;;47.47;36.00;;;10.60;99.90;;;;;;6125267;23;20014;-81
2023/04/09 08:15:09;;;;;;;43.83;35.17;;;10.70;99.90;;;;;;6152505;23;20462;-81
2023/04/09 08:17:38;;;;;;;45.20;35.47;;;10.90;99.90;;;;;;6101080;23;20032;-80
2023/04/09 08:20:04;;;;;;;39.33;31.83;;;11.10;99.90;;;;;;6126191;23;20017;-80
2023/04/09 08:22:30;;;;;;;40.13;32.17;;;11.40;99.90;;;;;;6125725;23;20444;-81
2023/04/09 08:24:56;;;;;;;41.95;33.58;;;11.40;99.90;;;;;;6125631;23;20013;-81
2023/04/09 08:27:22;;;;;;;43.88;34.25;;;11.50;99.90;;;;;;6124783;23;20029;-82
2023/04/09 08:29:48;;;;;;;42.85;33.50;;;11.50;99.90;;;;;;6152617;23;20009;-80
2023/04/09 08:32:14;;;;;;;44.13;33.72;;;11.40;99.90;;;;;;6153045;23;20483;-82
2023/04/09 08:34:40;;;;;;;40.90;32.80;;;11.30;99.90;;;;;;6100939;23;20009;-82
2023/04/09 08:37:05;;;;;;;42.05;31.45;;;11.30;99.90;;;;;;6123960;23;20013;-80
2023/04/09 08:39:32;;;;;;;40.63;32.38;;;11.50;99.90;;;;;;6151129;23;20011;-81
2023/04/09 08:42:00;;;;;;;41.75;32.20;;;11.70;99.90;;;;;;6150993;23;20053;-79
2023/04/09 08:44:26;;;;;;;42.08;31.90;;;11.70;99.90;;;;;;6125945;23;20052;-80
2023/04/09 08:46:53;;;;;;;38.78;31.52;;;11.90;99.90;;;;;;6125633;23;20009;-80
2023/04/09 08:49:19;;;;;;;39.95;31.92;;;11.80;99.90;;;;;;6127105;23;20017;-81
2023/04/09 08:51:47;;;;;;;39.92;31.27;;;11.60;99.90;;;;;;6126244;23;20036;-80
2023/04/09 08:54:16;;;;;;;51.67;30.20;;;12.00;99.90;;;;;;6121015;23;20485;-79
2023/04/09 08:56:42;;;;;;;38.88;30.88;;;12.20;99.90;;;;;;6095635;23;20049;-79
2023/04/09 08:59:08;;;;;;;40.42;30.88;;;12.30;99.90;;;;;;6096486;23;20022;-79
2023/04/09 09:01:34;;;;;;;39.53;31.33;;;12.10;99.90;;;;;;6096248;23;20124;-79
2023/04/09 09:04:02;;;;;;;38.05;31.48;;;12.20;99.90;;;;;;6122111;23;20094;-79
2023/04/09 09:06:31;;;;;;;38.53;31.38;;;12.30;99.90;;;;;;6096170;23;20101;-81
2023/04/09 09:09:12;;;;;;;35.92;29.45;;;12.30;99.90;;;;;;6120109;23;20033;-81
2023/04/09 09:11:41;;;;;;;41.40;32.35;;;12.30;99.90;;;;;;6119955;23;20349;-81
2023/04/09 09:14:10;;;;;;;37.30;30.70;;;12.10;99.90;;;;;;6120596;23;20093;-79
2023/04/09 09:16:41;;;;;;;38.00;29.58;;;12.40;99.90;;;;;;6096191;23;20018;-80
2023/04/09 09:19:07;;;;;;;39.60;31.27;;;12.80;99.90;;;;;;6096140;23;20018;-81
2023/04/09 09:21:35;;;;;;;36.85;30.48;;;12.90;99.90;;;;;;6095898;23;20309;-81
2023/04/09 09:24:01;;;;;;;37.20;30.38;;;13.20;99.90;;;;;;6121400;23;20085;-79
2023/04/09 09:26:28;;;;;;;38.42;30.58;;;13.00;99.90;;;;;;6095083;23;20013;-82
2023/04/09 09:28:57;;;;;;;38.08;30.23;;;12.90;99.90;;;;;;6122264;23;20017;-86
2023/04/09 09:31:24;;;;;;;38.75;30.02;;;12.80;99.90;;;;;;6118944;23;20345;-82
2023/04/09 09:33:50;;;;;;;37.40;27.63;;;12.50;99.90;;;;;;6095560;23;20037;-84
2023/04/09 09:36:36;;;;;;;38.45;30.00;;;12.70;99.90;;;;;;6120770;23;20032;-82
2023/04/09 09:39:08;;;;;;;35.72;29.73;;;12.70;99.90;;;;;;6095774;23;20429;-81
2023/04/09 09:41:34;;;;;;;36.20;28.63;;;12.90;99.90;;;;;;6121451;23;20016;-82
2023/04/09 09:44:00;;;;;;;36.95;30.42;;;13.10;99.90;;;;;;6123983;23;20018;-82
2023/04/09 09:46:27;;;;;;;39.00;30.23;;;13.10;99.90;;;;;;6097741;23;20016;-83
2023/04/09 09:48:53;;;;;;;35.25;28.92;;;13.10;99.90;;;;;;6095349;23;20137;-81
2023/04/09 09:51:21;;;;;;;33.97;27.70;;;13.00;99.90;;;;;;6095693;23;20508;-82
2023/04/09 09:53:52;;;;;;;31.67;26.58;;;13.20;99.90;;;;;;6136556;23;20229;-81
2023/04/09 09:56:21;;;;;;;33.35;27.55;;;13.40;99.90;;;;;;6100736;23;20329;-84
2023/04/09 09:59:09;;;;;;;35.25;28.42;;;13.50;99.90;;;;;;6125747;23;20029;-85
2023/04/09 10:01:36;;;;;;;33.45;27.90;;;13.40;99.90;;;;;;6101167;23;20016;-81
2023/04/09 10:04:05;;;;;;;34.97;29.45;;;13.50;99.90;;;;;;6151697;23;20024;-86
2023/04/09 10:06:37;;;;;;;35.25;28.75;;;13.50;99.90;;;;;;6101840;23;20017;-83
2023/04/09 10:09:05;;;;;;;37.33;28.85;;;13.60;99.90;;;;;;6100501;23;20009;-83
2023/04/09 10:11:34;;;;;;;35.15;28.73;;;13.80;99.90;;;;;;6125090;23;20018;-82
2023/04/09 10:14:00;;;;;;;35.53;28.83;;;14.00;99.90;;;;;;6099976;23;20060;-80
2023/04/09 10:16:27;;;;;;;35.42;28.83;;;13.90;99.90;;;;;;6123732;23;20064;-81
2023/04/09 10:18:57;;;;;;;36.83;29.67;;;13.70;99.90;;;;;;6123990;23;20052;-80
2023/04/09 10:21:53;;;;;;;37.72;29.30;;;13.70;99.90;;;;;;6124419;23;20017;-81
2023/04/09 10:24:19;;;;;;;35.17;29.45;;;13.70;99.90;;;;;;6099542;23;20018;-82
2023/04/09 10:26:45;;;;;;;36.10;28.88;;;13.80;99.90;;;;;;6124258;23;20115;-80
2023/04/09 10:29:13;;;;;;;31.50;26.30;;;13.90;99.90;;;;;;6151028;23;20014;-82
2023/04/09 10:32:04;;;;;;;36.88;29.92;;;14.00;99.90;;;;;;6124686;23;20017;-83
2023/04/09 10:34:38;;;;;;;35.53;28.80;;;14.20;99.90;;;;;;6126490;23;20452;-82
2023/04/09 10:37:12;;;;;;;36.47;28.60;;;14.20;99.90;;;;;;6153845;23;20018;-85
2023/04/09 10:39:43;;;;;;;36.83;29.45;;;14.10;99.90;;;;;;6152313;23;20433;-85
2023/04/09 10:42:13;;;;;;;36.05;29.13;;;14.00;99.90;;;;;;6102236;23;20014;-84
2023/04/09 10:44:42;;;;;;;30.60;25.63;;;14.30;99.90;;;;;;6125992;23;20022;-81
2023/04/09 10:47:09;;;;;;;28.77;25.27;;;14.20;99.90;;;;;;6125514;23;20029;-81
2023/04/09 10:49:39;;;;;;;33.13;27.10;;;14.20;99.90;;;;;;6101581;23;20017;-80
2023/04/09 10:52:10;;;;;;;33.42;26.40;;;14.10;99.90;;;;;;6125647;23;20014;-80
2023/04/09 10:54:42;;;;;;;29.58;25.05;;;14.30;99.90;;;;;;6095945;23;20009;-82
2023/04/09 10:57:12;;;;;;;35.22;26.67;;;14.20;99.90;;;;;;6120438;23;20005;-82
2023/04/09 10:59:40;;;;;;;31.23;26.33;;;14.20;99.90;;;;;;6121377;23;20088;-80
2023/04/09 11:02:12;;;;;;;31.75;25.88;;;14.20;99.90;;;;;;6120898;23;20405;-80
2023/04/09 11:05:09;;;;;;;30.80;25.63;;;14.20;99.90;;;;;;6097222;23;20088;-82
2023/04/09 11:07:39;;;;;;;31.70;26.33;;;14.20;99.90;;;;;;6119013;23;20026;-79
2023/04/09 11:10:05;;;;;;;31.33;25.27;;;14.20;99.90;;;;;;6120609;23;20049;-82
2023/04/09 11:12:32;;;;;;;30.73;25.85;;;14.40;99.90;;;;;;6122223;23;20095;-80
2023/04/09 11:14:57;;;;;;;28.98;24.73;;;14.50;99.90;;;;;;6121882;23;20021;-80
2023/04/09 11:17:23;;;;;;;32.42;25.05;;;14.60;99.90;;;;;;6127281;23;20033;-83
2023/04/09 11:19:49;;;;;;;31.35;26.48;;;14.90;99.90;;;;;;6129812;23;20006;-85
2023/04/09 11:22:15;;;;;;;31.77;25.52;;;14.80;99.90;;;;;;6100568;23;20053;-82
2023/04/09 11:24:41;;;;;;;32.97;26.50;;;14.60;99.90;;;;;;6100742;23;20014;-82
2023/04/09 11:27:06;;;;;;;31.50;25.77;;;14.30;99.90;;;;;;6125713;23;20026;-82
2023/04/09 11:29:34;;;;;;;30.85;24.33;;;14.30;99.90;;;;;;6126876;23;20042;-83
2023/04/09 11:32:00;;;;;;;31.60;25.90;;;14.30;99.90;;;;;;6104074;23;20016;-86
2023/04/09 11:34:28;;;;;;;31.60;25.58;;;14.20;99.90;;;;;;6125487;23;20046;-80
2023/04/09 11:36:55;;;;;;;29.40;24.15;;;14.30;99.90;;;;;;6102488;23;20006;-83
2023/04/09 11:39:21;;;;;;;26.30;22.10;;;14.60;99.90;;;;;;6103550;23;20014;-82
2023/04/09 11:41:47;;;;;;;30.05;22.85;;;14.90;99.90;;;;;;6103144;23;20021;-81
2023/04/09 11:44:13;;;;;;;27.83;22.48;;;14.70;99.90;;;;;;6128844;23;20017;-83
2023/04/09 11:46:39;;;;;;;27.55;23.08;;;14.70;99.90;;;;;;6127968;23;20113;-80
2023/04/09 11:49:05;;;;;;;24.85;20.67;;;14.70;99.90;;;;;;6103543;23;20109;-82
2023/04/09 11:51:31;;;;;;;26.90;22.23;;;15.00;99.90;;;;;;6125843;23;20013;-80
2023/04/09 11:54:07;;;;;;;27.58;22.42;;;15.30;99.90;;;;;;6124267;23;20033;-83
2023/04/09 11:56:35;;;;;;;28.48;22.83;;;15.50;99.90;;;;;;6125487;23;20021;-80
2023/04/09 11:59:02;;;;;;;28.75;24.38;;;15.60;99.90;;;;;;6127742;23;20022;-82
2023/04/09 12:01:33;;;;;;;30.75;24.75;;;15.70;99.90;;;;;;6124230;23;20033;-79
2023/04/09 12:04:00;;;;;;;28.90;23.63;;;15.80;99.90;;;;;;6124615;23;20021;-83
2023/04/09 12:06:27;;;;;;;28.17;23.08;;;15.60;99.90;;;;;;6102386;23;20322;-84
2023/04/09 12:08:55;;;;;;;32.33;23.70;;;15.40;99.90;;;;;;6122238;23;20006;-82
2023/04/09 12:11:27;;;;;;;26.00;22.10;;;15.30;99.90;;;;;;6122136;23;20014;-84
2023/04/09 12:14:11;;;;;;;27.23;22.67;;;15.20;99.90;;;;;;6120842;23;20116;-82
2023/04/09 12:16:37;;;;;;;24.77;20.77;;;15.00;99.90;;;;;;6121456;23;20229;-80
2023/04/09 12:19:06;;;;;;;26.55;21.98;;;15.20;99.90;;;;;;6123235;23;20014;-84
2023/04/09 12:22:02;;;;;;;27.60;22.65;;;15.20;99.90;;;;;;6122024;23;20339;-81
2023/04/09 12:24:27;;;;;;;27.17;22.40;;;15.10;99.90;;;;;;6100942;23;20062;-80
2023/04/09 12:26:53;;;;;;;25.90;21.73;;;15.10;99.90;;;;;;6119804;23;20033;-83
2023/04/09 12:29:20;;;;;;;26.23;22.02;;;14.70;99.90;;;;;;6120184;23;20010;-82
2023/04/09 12:31:46;;;;;;;26.77;21.38;;;14.70;99.90;;;;;;6121977;23;20021;-86
2023/04/09 12:34:12;;;;;;;27.17;22.02;;;14.80;99.90;;;;;;6119363;23;20111;-84
2023/04/09 12:36:40;;;;;;;26.25;21.20;;;14.90;99.90;;;;;;6119448;23;20551;-84